Accueil
METAR-TAF:

METAR-TAF

Aéroports :

Aéroport de Dole-Jura

Dole, France

latitude: 47-02-34N, longitude: 005-26-06E, altitude: 196 m

Observation

Le bulletin a été fait il y a 25 minutes, à 19:00 UTC
Vent 3 kt de nord/nord-est
Température 23°C
Humidité 69%
Pression 1015 hPa
Visibilité 10 km ou plus
pas de nuages en-dessous de 1500 mètres et pas de cumulonimbus.

METAR: LFGJ 141900Z AUTO 03003KT CAVOK 23/17 Q1015

Heure: 21:25 (19:25 UTC)

Prévision

Le bulletin a été fait il y a 5 heures et 25 minutes, à 14:00 UTC
Prévision valable du 14 à 15 UTC au 14 à 24 UTC
Vent 6 kt de sud/sud-ouest
Visibilité 10 km ou plus
Quelques nuages à une hauteur de 4000 ft
Nuages fragmentés à une hauteur de 6000 ft
Temporairement
du 14 à 15 UTC au 14 à 18 UTC
Visibilité: 4000 m
Quelques nuages à une hauteur de 4000 ft, Cumulonimbus.
averses de pluie

TAF: LFGJ 141400Z 1415/1424 20006KT 9999 FEW040 BKN060 TEMPO 1415/1418 4000 SHRA FEW040CB

Observations et prévisions météorologiques de plus de 4000 aéroports (messages METAR et TAF).

Les stations disponibles sont représentées par des disques jaunes et rouges sur la carte.

Passer la souris dessus pour voir le nom de la station.

Cliquer dessus pour voir les observations et prévisions météorologiques.

Pour changer de carte: cliquez sur les boutons verts avec une croix noire pour zoomer, sur le bouton vert avec un tiret pour effectuer un zoom arrière, ou sur les flèches vertes pour les cartes adjacentes.


METAR-TAF: